This is the latest recevied weather packets stored in our database for station/object E22ZMG-1. If no packets are shown the sender has not sent any weather packets the latest 10 day(s).
| Time | Temp. | Humidity | Pressure | Rain* | Wind** | Luminosity | Snow |
|---|---|---|---|---|---|---|---|
| 1777858245 | 33.33° C | 45% | 977 hPa | - | - | 0 W/m² | - |
| 1777857618 | 32.22° C | 48% | 977 hPa | - | - | 0 W/m² | - |
| 1777856993 | 32.78° C | 47% | 976 hPa | - | - | 0 W/m² | - |
| 1777856369 | 32.22° C | 47% | 976 hPa | - | - | 0 W/m² | - |
| 1777855744 | 32.22° C | 46% | 976 hPa | - | - | 0 W/m² | - |
| 1777855119 | 32.22° C | 48% | 976 hPa | - | - | 0 W/m² | - |
| 1777854495 | 31.67° C | 49% | 976 hPa | - | - | 0 W/m² | - |
| 1777853870 | 32.22° C | 47% | 976 hPa | - | - | 0 W/m² | - |
| 1777853245 | 31.67° C | 48% | 976 hPa | - | - | 0 W/m² | - |
| 1777852619 | 31.67° C | 50% | 976 hPa | - | - | 0 W/m² | - |
| 1777851993 | 31.11° C | 50% | 976 hPa | - | - | 0 W/m² | - |
| 1777851368 | 30.56° C | 52% | 976 hPa | - | - | 0 W/m² | - |
| 1777850744 | 31.11° C | 50% | 975 hPa | - | - | 0 W/m² | - |
| 1777850118 | 30.56° C | 51% | 975 hPa | - | - | 0 W/m² | - |
| 1777849493 | 31.11° C | 50% | 975 hPa | - | - | 0 W/m² | - |
| 1777848867 | 32.22° C | 48% | 975 hPa | - | - | 0 W/m² | - |
| 1777848241 | 32.22° C | 49% | 975 hPa | - | - | 0 W/m² | - |
| 1777847617 | 32.22° C | 49% | 975 hPa | - | - | 0 W/m² | - |
| 1777846990 | 31.67° C | 51% | 975 hPa | - | - | 0 W/m² | - |
| 1777846365 | 31.67° C | 51% | 975 hPa | - | - | 0 W/m² | - |
| 1777845740 | 32.22° C | 50% | 975 hPa | - | - | 0 W/m² | - |
| 1777845114 | 32.22° C | 50% | 974 hPa | - | - | 0 W/m² | - |
| 1777844488 | 32.78° C | 49% | 974 hPa | - | - | 0 W/m² | - |
| 1777843238 | 33.33° C | 48% | 974 hPa | - | - | 0 W/m² | - |
| 1777842612 | 33.33° C | 48% | 974 hPa | - | - | 0 W/m² | - |
* Rain since midnight (hover to see other rain measurements)
** Current wind speed in m/s (hover to see current wind gust speed)